createdAt,value
2023-04-25T00:01:27.593Z,32.75
2023-04-25T00:03:58.443Z,32.76
2023-04-25T00:06:29.908Z,32.73
2023-04-25T00:09:00.359Z,32.74
2023-04-25T00:11:30.765Z,32.74
2023-04-25T00:14:01.086Z,32.70
2023-04-25T00:16:32.495Z,32.70
2023-04-25T00:19:03.235Z,32.73
2023-04-25T00:21:35.011Z,32.74
2023-04-25T00:24:05.637Z,32.74
2023-04-25T00:26:36.941Z,32.70
2023-04-25T00:29:07.378Z,32.76
2023-04-25T00:31:37.690Z,32.72
2023-04-25T00:34:08.177Z,32.76
2023-04-25T00:36:40.281Z,32.71
2023-04-25T00:39:10.569Z,32.73
2023-04-25T00:41:41.138Z,32.73
2023-04-25T00:44:16.925Z,32.74
2023-04-25T00:46:48.184Z,32.77
2023-04-25T00:49:20.275Z,32.75
2023-04-25T00:51:50.679Z,32.74
2023-04-25T00:54:20.947Z,32.76
2023-04-25T00:56:51.269Z,32.78
2023-04-25T00:59:23.652Z,32.76
2023-04-25T01:01:54.355Z,32.77
2023-04-25T01:04:25.495Z,32.79
2023-04-25T01:06:55.460Z,32.76
2023-04-25T01:09:26.924Z,32.78
2023-04-25T01:11:57.362Z,32.80
2023-04-25T01:14:27.780Z,32.83
2023-04-25T01:16:58.352Z,32.86
2023-04-25T01:19:29.362Z,32.85
2023-04-25T01:22:01.041Z,32.87
2023-04-25T01:24:32.927Z,32.90
2023-04-25T01:27:05.605Z,32.89
2023-04-25T01:29:36.945Z,32.89
2023-04-25T01:32:09.267Z,32.90
2023-04-25T01:34:39.711Z,32.92
2023-04-25T01:37:09.826Z,32.94
2023-04-25T01:39:40.114Z,32.94
2023-04-25T01:42:10.734Z,32.95
2023-04-25T01:44:41.576Z,32.95
2023-04-25T01:47:12.026Z,33.01
2023-04-25T01:49:42.409Z,33.00
2023-04-25T01:52:12.713Z,33.03
2023-04-25T01:54:47.406Z,33.06
2023-04-25T01:57:19.531Z,33.06
2023-04-25T01:59:50.705Z,33.06
2023-04-25T02:02:41.324Z,33.08
2023-04-25T02:05:24.256Z,33.07
2023-04-25T02:07:55.488Z,33.07
2023-04-25T02:10:28.670Z,33.08
2023-04-25T02:13:10.800Z,33.06
2023-04-25T02:16:07.223Z,33.09
2023-04-25T02:18:37.703Z,33.08
2023-04-25T02:21:10.082Z,33.10
2023-04-25T02:23:40.546Z,33.14
2023-04-25T02:26:10.656Z,33.13
2023-04-25T02:28:40.960Z,33.16
2023-04-25T02:31:11.285Z,33.16
2023-04-25T02:33:42.250Z,33.18
2023-04-25T02:36:12.604Z,33.17
2023-04-25T02:38:43.121Z,33.18
2023-04-25T02:41:13.543Z,33.19
2023-04-25T02:43:43.840Z,33.19
2023-04-25T02:46:14.667Z,33.19
2023-04-25T02:48:45.002Z,33.19
2023-04-25T02:51:15.907Z,33.20
2023-04-25T02:53:48.220Z,33.20
2023-04-25T02:56:18.619Z,33.20
2023-04-25T02:58:49.002Z,33.22
2023-04-25T03:01:19.405Z,33.20
2023-04-25T03:03:50.289Z,33.22
2023-04-25T03:06:20.815Z,33.23
2023-04-25T03:08:51.118Z,33.25
2023-04-25T03:11:23.568Z,33.28
2023-04-25T03:13:53.915Z,33.27
2023-04-25T03:16:25.026Z,33.29
2023-04-25T03:18:55.436Z,33.31
2023-04-25T03:21:25.926Z,33.33
2023-04-25T03:23:56.390Z,33.33
2023-04-25T03:26:26.946Z,33.34
2023-04-25T03:28:57.218Z,33.37
2023-04-25T03:31:27.463Z,33.36
2023-04-25T03:33:58.020Z,33.40
2023-04-25T03:36:28.292Z,33.42
2023-04-25T03:38:58.927Z,33.45
2023-04-25T03:41:31.301Z,33.46
2023-04-25T03:44:07.492Z,33.46
2023-04-25T03:46:38.801Z,33.49
2023-04-25T03:49:09.304Z,33.49
2023-04-25T03:51:59.940Z,33.49
2023-04-25T03:54:31.816Z,33.50
2023-04-25T03:57:28.363Z,33.50
2023-04-25T03:59:58.964Z,33.52
2023-04-25T04:02:31.370Z,33.57
2023-04-25T04:05:02.590Z,33.54
2023-04-25T04:07:33.335Z,33.54
2023-04-25T04:10:06.037Z,33.52
2023-04-25T04:12:40.661Z,33.55
2023-04-25T04:15:11.062Z,33.54
2023-04-25T04:17:42.206Z,33.59
2023-04-25T04:20:13.251Z,33.56
2023-04-25T04:22:44.592Z,33.58
2023-04-25T04:25:17.319Z,33.59
2023-04-25T04:28:23.582Z,33.61
2023-04-25T04:30:58.928Z,33.60
2023-04-25T04:33:29.969Z,33.61
2023-04-25T04:36:04.425Z,33.62
2023-04-25T04:38:35.530Z,33.63
2023-04-25T04:41:07.621Z,33.68
2023-04-25T04:43:52.651Z,33.66
2023-04-25T04:46:34.925Z,33.65
2023-04-25T04:49:17.864Z,33.67
2023-04-25T04:51:50.979Z,33.68
2023-04-25T04:54:44.447Z,33.65
2023-04-25T04:57:21.583Z,33.65
2023-04-25T05:00:08.240Z,33.66
2023-04-25T05:03:10.803Z,33.65
2023-04-25T05:05:59.835Z,33.66
2023-04-25T05:08:50.347Z,33.67
2023-04-25T05:11:40.949Z,33.69
2023-04-25T05:14:31.367Z,33.71
2023-04-25T05:17:36.302Z,33.71
2023-04-25T05:20:26.912Z,33.76
2023-04-25T05:23:17.537Z,33.78
2023-04-25T05:26:06.556Z,33.78
2023-04-25T05:28:55.353Z,33.80
2023-04-25T05:31:54.963Z,33.80
2023-04-25T05:34:25.524Z,33.81
2023-04-25T05:37:02.173Z,33.81
2023-04-25T05:39:33.788Z,33.82
2023-04-25T05:42:26.893Z,33.84
2023-04-25T05:45:21.546Z,33.85
2023-04-25T05:48:09.508Z,33.88
2023-04-25T05:51:05.700Z,33.85
2023-04-25T05:53:54.110Z,33.84
2023-04-25T05:56:25.402Z,33.85
2023-04-25T05:58:56.981Z,33.86
2023-04-25T06:01:27.469Z,33.88
2023-04-25T06:03:58.116Z,33.89
2023-04-25T06:06:31.311Z,33.89
2023-04-25T06:09:03.019Z,33.88
2023-04-25T06:11:35.373Z,33.90
2023-04-25T06:14:07.096Z,33.90
2023-04-25T06:16:41.291Z,33.93
2023-04-25T06:19:11.870Z,33.97
2023-04-25T06:21:42.429Z,34.00
2023-04-25T06:24:13.295Z,34.09
2023-04-25T06:26:44.031Z,34.07
2023-04-25T06:29:14.461Z,34.07
2023-04-25T06:31:44.906Z,34.07
2023-04-25T06:34:15.297Z,34.09
2023-04-25T06:36:45.673Z,34.10
2023-04-25T06:39:18.877Z,34.09
2023-04-25T06:41:49.409Z,34.08
2023-04-25T06:44:43.816Z,34.06
2023-04-25T06:47:15.853Z,34.04
2023-04-25T06:49:47.085Z,34.03
2023-04-25T06:52:18.185Z,34.05
2023-04-25T06:54:49.322Z,34.06
2023-04-25T06:57:45.750Z,34.07
2023-04-25T07:00:35.598Z,34.06
2023-04-25T07:03:06.131Z,34.05
2023-04-25T07:05:36.701Z,34.07
2023-04-25T07:08:07.277Z,34.08
2023-04-25T07:10:38.276Z,34.12
2023-04-25T07:13:09.233Z,34.12
2023-04-25T07:15:40.030Z,34.13
2023-04-25T07:18:10.426Z,34.15
2023-04-25T07:20:40.747Z,34.16
2023-04-25T07:23:10.904Z,34.18
2023-04-25T07:25:41.401Z,34.22
2023-04-25T07:28:12.207Z,34.22
2023-04-25T07:30:42.745Z,34.26
2023-04-25T07:33:13.674Z,34.31
2023-04-25T07:35:44.060Z,34.33
2023-04-25T07:38:17.107Z,34.39
2023-04-25T07:40:47.730Z,34.40
2023-04-25T07:43:20.187Z,34.39
2023-04-25T07:45:58.218Z,34.39
2023-04-25T07:48:31.122Z,34.38
2023-04-25T07:51:01.423Z,34.39
2023-04-25T07:53:33.161Z,34.40
2023-04-25T07:56:09.133Z,34.42
2023-04-25T07:58:42.396Z,34.43
2023-04-25T08:01:15.038Z,34.43
2023-04-25T08:04:11.869Z,34.42
2023-04-25T08:06:57.315Z,34.43
2023-04-25T08:09:31.405Z,34.39
2023-04-25T08:12:01.954Z,34.42
2023-04-25T08:14:39.617Z,34.39
2023-04-25T08:17:11.021Z,34.37
2023-04-25T08:19:44.745Z,34.31
2023-04-25T08:22:24.917Z,34.28
2023-04-25T08:25:02.114Z,34.24
2023-04-25T08:27:32.706Z,34.20
2023-04-25T08:30:03.236Z,34.19
2023-04-25T08:32:34.704Z,34.17
2023-04-25T08:35:21.014Z,34.15
2023-04-25T08:37:53.072Z,34.12
2023-04-25T08:40:32.637Z,34.07
2023-04-25T08:43:15.257Z,34.02
2023-04-25T08:45:46.521Z,33.94
2023-04-25T08:48:39.821Z,33.88
2023-04-25T08:51:12.347Z,33.81
2023-04-25T08:53:46.400Z,33.78
2023-04-25T08:56:31.067Z,33.70
2023-04-25T08:59:01.982Z,33.64
2023-04-25T09:01:33.082Z,33.60
2023-04-25T09:04:04.981Z,33.58
2023-04-25T09:06:38.548Z,33.55
2023-04-25T09:09:11.684Z,33.54
2023-04-25T09:11:42.213Z,33.51
2023-04-25T09:14:19.248Z,33.43
2023-04-25T09:17:11.385Z,33.40
2023-04-25T09:19:44.744Z,33.35
2023-04-25T09:22:26.679Z,33.32
2023-04-25T09:24:57.314Z,33.32
2023-04-25T09:27:31.682Z,33.33
2023-04-25T09:30:19.981Z,33.32
2023-04-25T09:33:11.593Z,33.29
2023-04-25T09:35:47.132Z,33.33
2023-04-25T09:38:25.686Z,33.27
2023-04-25T09:40:56.375Z,33.30
2023-04-25T09:43:36.529Z,33.26
2023-04-25T09:46:11.768Z,33.28
2023-04-25T09:48:53.453Z,33.30
2023-04-25T09:51:34.801Z,33.30
2023-04-25T09:54:06.866Z,33.32
2023-04-25T09:56:51.080Z,33.31
2023-04-25T09:59:26.003Z,33.29
2023-04-25T10:01:59.014Z,33.30
2023-04-25T10:04:38.324Z,33.27
2023-04-25T10:07:14.890Z,33.28
2023-04-25T10:09:51.192Z,33.28
2023-04-25T10:12:21.871Z,33.28
2023-04-25T10:14:52.268Z,33.31
2023-04-25T10:17:24.571Z,33.31
2023-04-25T10:19:55.860Z,33.30
2023-04-25T10:22:38.244Z,33.36
2023-04-25T10:25:10.008Z,33.36
2023-04-25T10:27:40.784Z,33.36
2023-04-25T10:30:18.540Z,33.37
2023-04-25T10:32:50.835Z,33.37
2023-04-25T10:35:32.751Z,33.38
2023-04-25T10:38:04.107Z,33.37
2023-04-25T10:40:35.190Z,33.37
2023-04-25T10:43:34.755Z,33.37
2023-04-25T10:46:05.862Z,33.39
2023-04-25T10:48:35.730Z,33.37
2023-04-25T10:51:19.340Z,33.36
2023-04-25T10:53:51.246Z,33.36
2023-04-25T10:56:24.572Z,33.36
2023-04-25T10:58:55.199Z,33.35
2023-04-25T11:01:31.750Z,33.35
2023-04-25T11:04:02.852Z,33.36
2023-04-25T11:06:45.742Z,33.34
2023-04-25T11:09:16.856Z,33.31
2023-04-25T11:11:47.035Z,33.33
2023-04-25T11:14:17.467Z,33.33
2023-04-25T11:16:47.803Z,33.34
2023-04-25T11:19:18.307Z,33.33
2023-04-25T11:21:48.780Z,33.33
2023-04-25T11:24:20.970Z,33.28
2023-04-25T11:26:51.714Z,33.30
2023-04-25T11:29:21.969Z,33.29
2023-04-25T11:31:52.485Z,33.28
2023-04-25T11:34:23.188Z,33.25
2023-04-25T11:36:55.475Z,33.24
2023-04-25T11:39:27.359Z,33.25
2023-04-25T11:41:59.538Z,33.20
2023-04-25T11:44:32.170Z,33.18
2023-04-25T11:47:03.504Z,33.20
2023-04-25T11:49:36.572Z,33.21
2023-04-25T11:52:10.509Z,33.21
2023-04-25T11:54:41.539Z,33.19
2023-04-25T11:57:11.588Z,33.20
2023-04-25T11:59:41.683Z,33.18
2023-04-25T12:02:11.810Z,33.19
2023-04-25T12:04:45.246Z,33.16
2023-04-25T12:07:16.968Z,33.17
2023-04-25T12:09:47.499Z,33.17
2023-04-25T12:12:17.794Z,33.16
2023-04-25T12:14:54.667Z,33.16
2023-04-25T12:17:26.725Z,33.16
2023-04-25T12:19:57.117Z,33.17
2023-04-25T12:22:28.308Z,33.14
2023-04-25T12:25:00.189Z,33.12
2023-04-25T12:27:30.887Z,33.17
2023-04-25T12:30:01.888Z,33.14
2023-04-25T12:32:32.210Z,33.17
2023-04-25T12:35:03.492Z,33.16
2023-04-25T12:37:37.824Z,33.17
2023-04-25T12:40:10.396Z,33.17
2023-04-25T12:42:41.258Z,33.15
2023-04-25T12:45:15.928Z,33.17
2023-04-25T12:47:47.645Z,33.18
2023-04-25T12:50:21.309Z,33.19
2023-04-25T12:52:52.288Z,33.20
2023-04-25T12:55:22.927Z,33.22
2023-04-25T13:07:49.277Z,32.83
2023-04-25T13:10:19.853Z,32.78
2023-04-25T13:12:51.284Z,32.76
2023-04-25T13:15:21.909Z,32.77
2023-04-25T13:17:52.592Z,32.86
2023-04-25T13:20:26.031Z,32.81
2023-04-25T13:22:56.417Z,32.85
2023-04-25T13:25:27.184Z,32.76
2023-04-25T13:27:57.824Z,32.73
2023-04-25T13:30:28.387Z,32.66
2023-04-25T13:33:00.801Z,32.73
2023-04-25T13:35:31.217Z,32.73
2023-04-25T13:38:01.622Z,32.67
2023-04-25T13:40:32.439Z,32.72
2023-04-25T13:43:03.876Z,32.63
2023-04-25T13:45:35.135Z,32.61
2023-04-25T13:48:06.333Z,32.77
2023-04-25T13:50:36.885Z,32.83
2023-04-25T13:53:07.404Z,32.88
2023-04-25T13:55:42.565Z,32.92
2023-04-25T13:58:13.504Z,32.92
2023-04-25T14:00:46.627Z,33.00
2023-04-25T14:03:17.387Z,33.06
2023-04-25T14:05:47.800Z,33.05
2023-04-25T14:08:18.153Z,33.03
2023-04-25T14:10:49.025Z,33.06
2023-04-25T14:13:19.451Z,33.03
2023-04-25T14:15:49.920Z,33.16
2023-04-25T14:18:20.733Z,33.09
2023-04-25T14:20:51.863Z,33.14
2023-04-25T14:23:22.432Z,33.17
2023-04-25T14:25:53.315Z,33.21
2023-04-25T14:28:23.911Z,33.25
2023-04-25T14:30:54.501Z,33.15
2023-04-25T14:33:27.562Z,33.21
2023-04-25T14:35:58.713Z,33.27
2023-04-25T14:38:29.162Z,33.32
2023-04-25T14:40:59.560Z,33.31
2023-04-25T14:43:30.011Z,33.31
2023-04-25T14:46:00.479Z,33.33
2023-04-25T14:48:30.985Z,33.35
2023-04-25T14:51:01.829Z,33.37
2023-04-25T14:53:32.571Z,33.43
2023-04-25T14:56:03.044Z,33.43
2023-04-25T14:58:33.621Z,33.44
2023-04-25T15:01:04.834Z,33.42
2023-04-25T15:03:35.515Z,33.42
2023-04-25T15:06:06.270Z,33.44
2023-04-25T15:08:37.277Z,33.33
2023-04-25T15:11:08.793Z,33.29
2023-04-25T15:13:39.195Z,33.27
2023-04-25T15:16:10.202Z,33.23
2023-04-25T15:18:40.689Z,33.24
2023-04-25T15:21:12.219Z,33.24
2023-04-25T15:23:43.538Z,33.13
2023-04-25T15:26:15.130Z,33.14
2023-04-25T15:28:46.455Z,33.12
2023-04-25T15:31:18.147Z,33.12
2023-04-25T15:33:50.376Z,33.13
2023-04-25T15:36:22.813Z,33.12
2023-04-25T15:38:54.288Z,33.07
2023-04-25T15:41:25.288Z,33.05
2023-04-25T15:43:57.428Z,33.00
2023-04-25T15:46:28.478Z,33.00
2023-04-25T15:48:59.823Z,32.97
2023-04-25T15:51:30.895Z,32.94
2023-04-25T15:54:02.110Z,32.89
2023-04-25T15:56:33.357Z,32.83
2023-04-25T15:59:03.601Z,32.85
2023-04-25T16:01:34.672Z,32.82
2023-04-25T16:04:05.183Z,32.84
2023-04-25T16:06:35.804Z,32.83
2023-04-25T16:09:07.076Z,32.77
2023-04-25T16:11:37.583Z,32.77
2023-04-25T16:14:07.814Z,32.77
2023-04-25T16:16:38.308Z,32.75
2023-04-25T16:19:08.699Z,32.79
2023-04-25T16:21:39.655Z,32.75
2023-04-25T16:24:10.492Z,32.77
2023-04-25T16:26:40.782Z,32.75
2023-04-25T16:29:11.421Z,32.76
2023-04-25T16:31:42.245Z,32.80
2023-04-25T16:34:12.643Z,32.78
2023-04-25T16:36:43.754Z,32.78
2023-04-25T16:39:14.103Z,32.76
2023-04-25T16:41:44.597Z,32.80
2023-04-25T16:44:15.392Z,32.80
2023-04-25T16:46:46.046Z,32.82
2023-04-25T16:49:16.376Z,32.85
2023-04-25T16:51:46.749Z,32.87
2023-04-25T16:54:16.787Z,32.87
2023-04-25T16:56:46.845Z,32.85
2023-04-25T16:59:16.890Z,32.88
2023-04-25T17:01:47.102Z,32.87
2023-04-25T17:04:17.926Z,32.82
2023-04-25T17:06:48.284Z,32.86
2023-04-25T17:09:18.687Z,32.83
2023-04-25T17:11:49.097Z,32.83
2023-04-25T17:14:19.495Z,32.80
2023-04-25T17:16:49.949Z,32.82
2023-04-25T17:19:20.212Z,32.84
2023-04-25T17:21:50.404Z,32.84
2023-04-25T17:24:20.771Z,32.91
2023-04-25T17:26:51.033Z,32.87
2023-04-25T17:29:21.856Z,32.94
2023-04-25T17:31:53.694Z,32.88
2023-04-25T17:34:24.523Z,32.85
2023-04-25T17:36:54.716Z,32.78
2023-04-25T17:39:24.958Z,32.77
2023-04-25T17:41:55.453Z,32.78
2023-04-25T17:44:25.688Z,32.82
2023-04-25T17:46:56.085Z,32.89
2023-04-25T17:49:26.530Z,32.85
2023-04-25T17:51:56.927Z,32.84
2023-04-25T17:54:27.904Z,32.91
2023-04-25T17:56:58.877Z,32.77
2023-04-25T17:59:30.454Z,32.78
2023-04-25T18:02:02.342Z,32.72
2023-04-25T18:04:32.730Z,32.74
2023-04-25T18:07:03.589Z,32.76
2023-04-25T18:09:34.699Z,32.75
2023-04-25T18:12:06.100Z,32.73
2023-04-25T18:14:38.107Z,32.80
2023-04-25T18:17:09.606Z,32.78
2023-04-25T18:19:39.974Z,32.78
2023-04-25T18:22:10.461Z,32.76
2023-04-25T18:24:40.768Z,32.70
2023-04-25T18:27:10.989Z,32.67
2023-04-25T18:29:41.366Z,32.70
2023-04-25T18:32:11.627Z,32.71
2023-04-25T18:34:46.126Z,32.65
2023-04-25T18:37:16.800Z,32.71
2023-04-25T18:39:47.614Z,32.62
2023-04-25T18:42:18.873Z,32.60
2023-04-25T18:44:48.926Z,32.54
2023-04-25T18:47:19.775Z,32.52
2023-04-25T18:49:50.306Z,32.47
2023-04-25T18:52:21.603Z,32.61
2023-04-25T18:54:52.443Z,32.43
2023-04-25T18:57:23.244Z,32.30
2023-04-25T18:59:53.425Z,32.28
2023-04-25T19:02:25.124Z,32.17
2023-04-25T19:04:55.480Z,32.24
2023-04-25T19:07:26.389Z,32.11
2023-04-25T19:09:57.464Z,32.26
2023-04-25T19:12:28.835Z,32.05
2023-04-25T19:14:59.179Z,32.16
2023-04-25T19:17:30.578Z,32.06
2023-04-25T19:20:01.054Z,32.08
2023-04-25T19:22:31.303Z,32.21
2023-04-25T19:25:09.808Z,32.12
2023-04-25T19:27:41.611Z,32.04
2023-04-25T19:30:13.051Z,31.86
2023-04-25T19:32:43.368Z,31.86
2023-04-25T19:35:14.041Z,31.96
2023-04-25T19:37:48.606Z,31.89
2023-04-25T19:40:20.718Z,31.88
2023-04-25T19:42:51.066Z,31.81
2023-04-25T19:45:21.218Z,31.83
2023-04-25T19:47:51.633Z,31.83
2023-04-25T19:50:22.044Z,31.97
2023-04-25T19:52:52.196Z,31.91
2023-04-25T19:55:22.913Z,31.93
2023-04-25T19:57:53.908Z,31.84
2023-04-25T20:00:24.623Z,31.87
2023-04-25T20:02:54.935Z,31.89
2023-04-25T20:05:26.054Z,31.91
2023-04-25T20:07:56.460Z,31.94
2023-04-25T20:10:27.062Z,31.96
2023-04-25T20:12:57.342Z,31.88
2023-04-25T20:15:27.736Z,31.85
2023-04-25T20:17:58.246Z,31.81
2023-04-25T20:20:28.634Z,31.76
2023-04-25T20:22:59.031Z,31.81
2023-04-25T20:25:29.431Z,31.72
2023-04-25T20:27:59.694Z,31.76
2023-04-25T20:30:29.940Z,31.74
2023-04-25T20:33:00.664Z,31.77
2023-04-25T20:35:30.867Z,31.76
2023-04-25T20:38:01.208Z,31.66
2023-04-25T20:40:31.502Z,31.86
2023-04-25T20:43:01.751Z,31.68
2023-04-25T20:45:34.660Z,31.74
2023-04-25T20:48:05.070Z,31.66
2023-04-25T20:50:37.412Z,31.63
2023-04-25T20:53:08.058Z,31.67
2023-04-25T20:55:38.967Z,31.70
2023-04-25T20:58:09.609Z,31.67
2023-04-25T21:00:41.370Z,31.66
2023-04-25T21:03:12.842Z,31.62
2023-04-25T21:05:43.374Z,31.61
2023-04-25T21:08:13.691Z,31.61
2023-04-25T21:10:44.495Z,31.65
2023-04-25T21:13:15.186Z,31.61
2023-04-25T21:15:45.865Z,31.63
2023-04-25T21:18:16.376Z,31.60
2023-04-25T21:20:46.885Z,31.65
2023-04-25T21:23:18.020Z,31.57
2023-04-25T21:25:49.737Z,31.57
2023-04-25T21:28:20.129Z,31.68
2023-04-25T21:30:50.549Z,31.55
2023-04-25T21:33:21.206Z,31.57
2023-04-25T21:35:51.706Z,31.55
2023-04-25T21:38:22.013Z,31.63
2023-04-25T21:40:52.542Z,31.67
2023-04-25T21:43:22.854Z,31.60
2023-04-25T21:48:27.577Z,31.55
2023-04-25T21:50:58.552Z,31.66
2023-04-25T21:53:31.646Z,31.62
2023-04-25T21:56:01.984Z,31.65
2023-04-25T21:58:32.334Z,31.64
2023-04-25T22:01:02.507Z,31.59
2023-04-25T22:03:34.000Z,31.58
2023-04-25T22:06:06.180Z,31.55
2023-04-25T22:08:36.395Z,31.63
2023-04-25T22:11:09.667Z,31.61
2023-04-25T22:13:40.018Z,31.50
2023-04-25T22:16:14.336Z,31.54
2023-04-25T22:18:44.758Z,31.53
2023-04-25T22:21:15.383Z,31.52
2023-04-25T22:23:45.614Z,31.52
2023-04-25T22:26:15.926Z,31.54
2023-04-25T22:28:46.915Z,31.54
2023-04-25T22:31:17.757Z,31.49
2023-04-25T22:33:49.727Z,31.49
2023-04-25T22:36:22.792Z,31.50
2023-04-25T22:38:54.835Z,31.52
2023-04-25T22:41:26.060Z,31.44
2023-04-25T22:43:56.499Z,31.53
2023-04-25T22:46:27.055Z,31.47
2023-04-25T22:48:58.311Z,31.54
2023-04-25T22:51:28.682Z,31.52
2023-04-25T22:56:04.457Z,31.49
2023-04-25T22:58:35.217Z,31.44
2023-04-25T23:01:06.236Z,31.44
2023-04-25T23:03:36.750Z,31.40
2023-04-25T23:06:08.210Z,31.36
2023-04-25T23:08:39.115Z,31.36
2023-04-25T23:11:10.346Z,31.32
2023-04-25T23:13:40.601Z,31.35
2023-04-25T23:16:11.985Z,31.36
2023-04-25T23:18:43.336Z,31.27
2023-04-25T23:21:14.539Z,31.26
2023-04-25T23:23:44.437Z,31.21
2023-04-25T23:26:14.628Z,31.22
2023-04-25T23:28:45.308Z,31.23
2023-04-25T23:31:15.833Z,31.21
2023-04-25T23:33:46.348Z,31.26
2023-04-25T23:36:26.208Z,31.23
2023-04-25T23:38:58.305Z,31.24
2023-04-25T23:41:28.588Z,31.28
2023-04-25T23:43:58.885Z,31.23
2023-04-25T23:46:30.744Z,31.35
2023-04-25T23:49:01.112Z,31.32
2023-04-25T23:51:31.838Z,31.31
2023-04-25T23:54:05.182Z,31.43
2023-04-25T23:56:35.639Z,31.39
2023-04-25T23:59:06.393Z,31.33
